Time;durP1;ratioP1;P1;durP2;ratioP2;P2;SDS_P1;SDS_P2;PMS_P1;PMS_P2;Temp;Humidity;BMP_temperature;BMP_pressure;BME280_temperature;BME280_humidity;BME280_pressure;Samples;Min_cycle;Max_cycle;Signal;HPM_P1;HPM_P2
2023/04/28 00:00:49;;;;;;;5.70;3.60;;;9.60;99.90;;;;;;5043213;28;20430;-56
2023/04/28 00:03:15;;;;;;;6.07;3.50;;;9.50;99.90;;;;;;5041603;28;20449;-57
2023/04/28 00:05:40;;;;;;;6.90;4.00;;;9.50;99.90;;;;;;5044052;28;20437;-56
2023/04/28 00:08:06;;;;;;;6.10;3.83;;;9.50;99.90;;;;;;5042472;28;20203;-56
2023/04/28 00:10:33;;;;;;;11.37;4.50;;;9.50;99.90;;;;;;5042565;28;20551;-56
2023/04/28 00:12:58;;;;;;;6.43;4.40;;;9.50;99.90;;;;;;5044396;28;20248;-57
2023/04/28 00:15:24;;;;;;;6.63;4.57;;;9.50;99.90;;;;;;5044476;28;20433;-57
2023/04/28 00:17:50;;;;;;;4.63;4.10;;;9.50;99.90;;;;;;5040014;28;20191;-55
2023/04/28 00:20:15;;;;;;;6.27;4.53;;;9.50;99.90;;;;;;5045352;28;20183;-56
2023/04/28 00:22:41;;;;;;;5.47;3.73;;;9.50;99.90;;;;;;5040234;28;20191;-56
2023/04/28 00:25:07;;;;;;;9.47;4.50;;;9.50;99.90;;;;;;5045729;28;20314;-57
2023/04/28 00:27:33;;;;;;;7.80;3.90;;;9.50;99.90;;;;;;5046616;28;20212;-55
2023/04/28 00:29:59;;;;;;;6.07;4.33;;;9.50;99.90;;;;;;5043024;28;20429;-58
2023/04/28 00:32:25;;;;;;;5.73;3.70;;;9.50;99.90;;;;;;5045578;28;20560;-58
2023/04/28 00:34:52;;;;;;;6.63;3.70;;;9.50;99.90;;;;;;5043068;28;20190;-56
2023/04/28 00:37:18;;;;;;;10.13;3.60;;;9.50;99.90;;;;;;5045332;28;20183;-56
2023/04/28 00:39:46;;;;;;;6.37;3.53;;;9.50;99.90;;;;;;5044527;28;20473;-56
2023/04/28 00:42:16;;;;;;;4.23;3.80;;;9.50;99.90;;;;;;5038413;28;20814;-57
2023/04/28 00:44:41;;;;;;;5.90;4.23;;;9.60;99.90;;;;;;5043415;28;20536;-57
2023/04/28 00:47:10;;;;;;;9.00;4.10;;;9.60;99.90;;;;;;5040286;28;20819;-57
2023/04/28 00:49:37;;;;;;;8.27;3.97;;;9.60;99.90;;;;;;5046200;28;20186;-55
2023/04/28 00:52:04;;;;;;;3.77;3.40;;;9.60;99.90;;;;;;5042163;28;21133;-57
2023/04/28 00:54:31;;;;;;;5.33;3.70;;;9.60;99.90;;;;;;5044373;28;20579;-56
2023/04/28 00:56:57;;;;;;;12.80;3.70;;;9.60;99.90;;;;;;5035772;28;20486;-56
2023/04/28 00:59:23;;;;;;;4.60;3.67;;;9.60;99.90;;;;;;5037348;28;20978;-56
2023/04/28 01:01:49;;;;;;;5.13;4.00;;;9.50;99.90;;;;;;5042388;28;20452;-55
2023/04/28 01:04:19;;;;;;;4.50;3.80;;;9.50;99.90;;;;;;5044502;28;20206;-56
2023/04/28 01:06:46;;;;;;;7.63;3.83;;;9.50;99.90;;;;;;5045633;28;21229;-56
2023/04/28 01:09:12;;;;;;;6.93;3.50;;;9.50;99.90;;;;;;5047801;28;20461;-57
2023/04/28 01:11:38;;;;;;;8.73;4.20;;;9.50;99.90;;;;;;5040840;28;20565;-57
2023/04/28 01:14:03;;;;;;;4.07;3.63;;;9.50;99.90;;;;;;5038798;28;20206;-57
2023/04/28 01:16:31;;;;;;;4.57;3.90;;;9.50;99.90;;;;;;5021714;28;20266;-55
2023/04/28 01:18:57;;;;;;;6.13;3.77;;;9.50;99.90;;;;;;5062934;28;20203;-57
2023/04/28 01:21:31;;;;;;;3.80;3.40;;;9.50;99.90;;;;;;5044794;28;20506;-56
2023/04/28 01:24:00;;;;;;;9.30;4.40;;;9.40;99.90;;;;;;5044443;28;20537;-56
2023/04/28 01:26:26;;;;;;;6.77;4.00;;;9.40;99.90;;;;;;5041043;28;20491;-56
2023/04/28 01:28:52;;;;;;;5.87;3.87;;;9.50;99.90;;;;;;5043280;28;20434;-63
2023/04/28 01:31:18;;;;;;;6.37;3.87;;;9.40;99.90;;;;;;5042161;28;20187;-56
2023/04/28 01:33:43;;;;;;;6.23;4.43;;;9.40;99.90;;;;;;5041102;28;20457;-58
2023/04/28 01:36:09;;;;;;;4.53;3.80;;;9.50;99.90;;;;;;5040189;28;20265;-56
2023/04/28 01:38:35;;;;;;;8.33;4.10;;;9.50;99.90;;;;;;5045494;28;20202;-56
2023/04/28 01:41:01;;;;;;;5.57;3.67;;;9.40;99.90;;;;;;5045120;28;20255;-56
2023/04/28 01:43:27;;;;;;;9.23;3.80;;;9.40;99.90;;;;;;5044098;28;20571;-57
2023/04/28 01:45:52;;;;;;;5.57;3.73;;;9.50;99.90;;;;;;5038695;28;20442;-55
2023/04/28 01:48:18;;;;;;;7.30;5.33;;;9.40;99.90;;;;;;5039875;28;20445;-56
2023/04/28 01:50:44;;;;;;;8.17;4.80;;;9.50;99.90;;;;;;5037443;28;20175;-56
2023/04/28 01:53:10;;;;;;;9.73;3.93;;;9.40;99.90;;;;;;5036744;28;20795;-56
2023/04/28 01:58:39;;;;;;;4.13;3.73;;;9.50;99.90;;;;;;5035525;28;20468;-57
2023/04/28 02:01:05;;;;;;;4.10;3.67;;;9.50;99.90;;;;;;5035609;28;20434;-57
2023/04/28 02:03:31;;;;;;;5.43;3.80;;;9.50;99.90;;;;;;5043409;28;20682;-55
2023/04/28 02:05:57;;;;;;;5.80;3.60;;;9.50;99.90;;;;;;5036491;28;20430;-57
2023/04/28 02:08:22;;;;;;;3.40;3.10;;;9.50;99.90;;;;;;5040582;28;20187;-56
2023/04/28 02:10:48;;;;;;;5.23;4.17;;;9.50;99.90;;;;;;5040923;28;21063;-55
2023/04/28 02:13:15;;;;;;;5.37;4.23;;;9.50;99.90;;;;;;5041432;28;20222;-56
2023/04/28 02:15:42;;;;;;;5.63;3.83;;;9.50;99.90;;;;;;5041074;28;20660;-58
2023/04/28 02:18:08;;;;;;;4.90;4.00;;;9.50;99.90;;;;;;5035846;28;20583;-56
2023/04/28 02:20:34;;;;;;;6.70;5.20;;;9.50;99.90;;;;;;5041380;28;20477;-57
2023/04/28 02:22:59;;;;;;;5.73;4.50;;;9.50;99.90;;;;;;5040091;28;20906;-57
2023/04/28 02:25:25;;;;;;;7.90;4.77;;;9.50;99.90;;;;;;5036502;28;20861;-57
2023/04/28 02:27:51;;;;;;;5.67;4.13;;;9.50;99.90;;;;;;5041889;28;20767;-56
2023/04/28 02:30:17;;;;;;;6.00;4.33;;;9.50;99.90;;;;;;5043967;28;20236;-57
2023/04/28 02:32:42;;;;;;;6.90;4.10;;;9.50;99.90;;;;;;5043670;28;20210;-58
2023/04/28 02:35:08;;;;;;;6.40;4.00;;;9.40;99.90;;;;;;5041529;28;20194;-56
2023/04/28 02:37:33;;;;;;;6.80;4.90;;;9.40;99.90;;;;;;5040367;28;20236;-57
2023/04/28 02:39:59;;;;;;;7.10;4.80;;;9.40;99.90;;;;;;5045544;28;20262;-56
2023/04/28 02:42:25;;;;;;;7.60;4.73;;;9.40;99.90;;;;;;5039515;28;20179;-57
2023/04/28 02:44:50;;;;;;;5.47;4.40;;;9.30;99.90;;;;;;5038426;28;20544;-57
2023/04/28 02:47:16;;;;;;;5.50;4.13;;;9.30;99.90;;;;;;5044421;28;20175;-56
2023/04/28 02:49:41;;;;;;;5.80;4.57;;;9.30;99.90;;;;;;5040586;28;20190;-56
2023/04/28 02:52:07;;;;;;;5.60;4.63;;;9.30;99.90;;;;;;5040558;28;20590;-56
2023/04/28 02:54:34;;;;;;;6.13;3.97;;;9.30;99.90;;;;;;5041961;28;20215;-55
2023/04/28 02:57:00;;;;;;;6.37;4.67;;;9.30;99.90;;;;;;5042851;28;21893;-57
2023/04/28 02:59:26;;;;;;;5.77;4.30;;;9.30;99.90;;;;;;5043002;28;20468;-56
2023/04/28 03:01:51;;;;;;;8.83;5.83;;;9.30;99.90;;;;;;5044682;28;20948;-56
2023/04/28 03:04:17;;;;;;;9.63;5.30;;;9.30;99.90;;;;;;5048516;28;20871;-57
2023/04/28 03:06:43;;;;;;;5.17;4.60;;;9.30;99.90;;;;;;5046030;28;20179;-58
2023/04/28 03:09:09;;;;;;;7.23;4.73;;;9.30;99.90;;;;;;5041136;28;20186;-57
2023/04/28 03:11:35;;;;;;;4.33;3.93;;;9.20;99.90;;;;;;5042127;28;20179;-58
2023/04/28 03:14:01;;;;;;;5.47;4.07;;;9.20;99.90;;;;;;5044532;28;21004;-56
2023/04/28 03:16:27;;;;;;;6.03;5.00;;;9.20;99.90;;;;;;5048194;28;21757;-57
2023/04/28 03:18:52;;;;;;;8.83;5.03;;;9.20;99.90;;;;;;5043531;28;20211;-57
2023/04/28 03:21:18;;;;;;;7.70;4.90;;;9.20;99.90;;;;;;5042773;28;20675;-56
2023/04/28 03:23:43;;;;;;;6.77;5.10;;;9.20;99.90;;;;;;5048607;28;20203;-57
2023/04/28 03:26:09;;;;;;;5.93;5.00;;;9.20;99.90;;;;;;5047408;28;20841;-56
2023/04/28 03:28:35;;;;;;;8.67;5.70;;;9.20;99.90;;;;;;5046664;28;20198;-59
2023/04/28 03:31:01;;;;;;;6.80;4.90;;;9.20;99.90;;;;;;5042124;28;20555;-56
2023/04/28 03:33:27;;;;;;;8.30;5.23;;;9.20;99.90;;;;;;5041954;28;20207;-57
2023/04/28 03:35:53;;;;;;;6.10;4.60;;;9.20;99.90;;;;;;5041684;28;20794;-58
2023/04/28 03:38:19;;;;;;;6.03;5.00;;;9.20;99.90;;;;;;5048711;28;20203;-57
2023/04/28 03:40:45;;;;;;;8.90;4.70;;;9.20;99.90;;;;;;5046039;28;20672;-57
2023/04/28 03:43:10;;;;;;;9.30;5.40;;;9.10;99.90;;;;;;5045087;28;20529;-59
2023/04/28 03:45:36;;;;;;;6.50;5.30;;;9.10;99.90;;;;;;5045728;28;20191;-55
2023/04/28 03:48:01;;;;;;;5.13;4.37;;;9.10;99.90;;;;;;5045692;28;20213;-56
2023/04/28 03:50:27;;;;;;;7.73;4.83;;;9.10;99.90;;;;;;5042927;28;20186;-57
2023/04/28 03:52:53;;;;;;;5.90;4.70;;;9.00;99.90;;;;;;5039484;28;20237;-58
2023/04/28 03:55:18;;;;;;;8.33;5.20;;;9.10;99.90;;;;;;5036761;28;20180;-56
2023/04/28 03:57:44;;;;;;;6.60;4.90;;;9.10;99.90;;;;;;5043266;28;20278;-58
2023/04/28 04:00:10;;;;;;;7.20;4.77;;;9.10;99.90;;;;;;5036916;28;20187;-58
2023/04/28 04:02:36;;;;;;;10.20;4.87;;;9.10;99.90;;;;;;5032628;28;20253;-56
2023/04/28 04:05:01;;;;;;;6.43;5.23;;;9.10;99.90;;;;;;5029725;28;20451;-57
2023/04/28 04:07:27;;;;;;;7.53;5.23;;;9.00;99.90;;;;;;5038568;28;20266;-58
2023/04/28 04:09:53;;;;;;;10.00;6.03;;;9.00;99.90;;;;;;5036073;28;20266;-55
2023/04/28 04:12:18;;;;;;;8.13;5.23;;;9.00;99.90;;;;;;5036168;28;20205;-58
2023/04/28 04:14:44;;;;;;;7.43;5.30;;;9.10;99.90;;;;;;5041712;28;21036;-57
2023/04/28 04:17:10;;;;;;;8.10;4.93;;;9.00;99.90;;;;;;5041786;28;20187;-59
2023/04/28 04:19:35;;;;;;;8.30;5.73;;;9.00;99.90;;;;;;5039760;28;20719;-58
2023/04/28 04:22:01;;;;;;;9.67;6.40;;;9.00;99.90;;;;;;5043330;28;20175;-57
2023/04/28 04:24:26;;;;;;;6.60;5.40;;;9.00;99.90;;;;;;5028287;28;20187;-57
2023/04/28 04:26:52;;;;;;;7.23;5.43;;;9.00;99.90;;;;;;5040503;28;20675;-58
2023/04/28 04:29:18;;;;;;;8.03;5.17;;;9.00;99.90;;;;;;5045087;28;20191;-55
2023/04/28 04:31:44;;;;;;;8.93;5.60;;;9.00;99.90;;;;;;5034855;28;20282;-55
2023/04/28 04:34:10;;;;;;;10.70;5.37;;;9.00;99.90;;;;;;5034403;28;20199;-58
2023/04/28 04:36:36;;;;;;;7.87;6.23;;;9.00;99.90;;;;;;5034970;28;20469;-55
2023/04/28 04:39:01;;;;;;;8.97;6.03;;;9.00;99.90;;;;;;5040158;28;20453;-55
2023/04/28 04:41:27;;;;;;;12.33;6.77;;;9.00;99.90;;;;;;5041400;28;20187;-55
2023/04/28 04:43:52;;;;;;;10.40;6.50;;;9.00;99.90;;;;;;5038700;28;21712;-57
2023/04/28 04:46:18;;;;;;;7.83;6.03;;;9.00;99.90;;;;;;5040075;28;20267;-56
2023/04/28 04:48:44;;;;;;;12.27;6.17;;;9.00;99.90;;;;;;5045737;28;20187;-58
2023/04/28 04:51:10;;;;;;;7.77;5.73;;;9.00;99.90;;;;;;5033706;28;20191;-57
2023/04/28 04:53:36;;;;;;;8.77;6.30;;;9.00;99.90;;;;;;5036180;28;20609;-57
2023/04/28 04:56:02;;;;;;;7.73;5.77;;;9.00;99.90;;;;;;5045261;28;20434;-58
2023/04/28 04:58:28;;;;;;;10.10;6.90;;;9.00;99.90;;;;;;5040345;28;20270;-57
2023/04/28 05:00:53;;;;;;;9.93;7.10;;;9.00;99.90;;;;;;5040134;28;21239;-57
2023/04/28 05:03:19;;;;;;;8.77;6.47;;;9.00;99.90;;;;;;5038243;28;20244;-57
2023/04/28 05:05:45;;;;;;;10.50;6.77;;;9.00;99.90;;;;;;5045701;28;20236;-56
2023/04/28 05:08:11;;;;;;;9.00;7.13;;;9.00;99.90;;;;;;5043078;28;20445;-57
2023/04/28 05:10:37;;;;;;;10.37;6.60;;;9.10;99.90;;;;;;5040184;28;20325;-59
2023/04/28 05:13:03;;;;;;;9.17;6.70;;;9.10;99.90;;;;;;5024960;28;20928;-57
2023/04/28 05:15:29;;;;;;;7.93;6.40;;;9.10;99.90;;;;;;5043694;28;20182;-55
2023/04/28 05:17:55;;;;;;;12.03;6.67;;;9.00;99.90;;;;;;5043006;28;20842;-63
2023/04/28 05:20:21;;;;;;;10.73;6.63;;;9.10;99.90;;;;;;5040381;28;20176;-56
2023/04/28 05:22:47;;;;;;;12.83;6.17;;;9.10;99.90;;;;;;5043724;28;21134;-57
2023/04/28 05:25:13;;;;;;;8.67;6.03;;;9.10;99.90;;;;;;5044306;28;20429;-61
2023/04/28 05:27:39;;;;;;;10.03;6.33;;;9.10;99.90;;;;;;5040040;28;20253;-59
2023/04/28 05:30:09;;;;;;;9.87;5.37;;;9.20;99.90;;;;;;5039751;28;20317;-57
2023/04/28 05:32:37;;;;;;;10.10;6.50;;;9.10;99.90;;;;;;5044019;28;20453;-56
2023/04/28 05:35:03;;;;;;;9.80;5.90;;;9.10;99.90;;;;;;5039773;28;20436;-58
2023/04/28 05:37:28;;;;;;;15.20;6.10;;;9.10;99.90;;;;;;5035661;28;20437;-56
2023/04/28 05:39:54;;;;;;;9.43;6.17;;;9.10;99.90;;;;;;5038342;28;20330;-57
2023/04/28 05:42:20;;;;;;;10.73;6.63;;;9.10;99.90;;;;;;5043208;28;20885;-57
2023/04/28 05:44:45;;;;;;;7.97;5.63;;;9.20;99.90;;;;;;5039564;28;20670;-57
2023/04/28 05:47:11;;;;;;;11.03;8.97;;;9.20;99.90;;;;;;5036282;28;20175;-57
2023/04/28 05:49:37;;;;;;;8.03;5.77;;;9.20;99.90;;;;;;5036381;28;20222;-57
2023/04/28 05:52:03;;;;;;;12.50;6.40;;;9.20;99.90;;;;;;5042455;28;20607;-57
2023/04/28 05:54:29;;;;;;;8.07;6.37;;;9.20;99.90;;;;;;5043054;28;20693;-57
2023/04/28 05:56:54;;;;;;;10.83;6.83;;;9.30;99.90;;;;;;5039652;28;20519;-58
2023/04/28 05:59:20;;;;;;;8.40;5.80;;;9.30;99.90;;;;;;5037673;28;20293;-57
2023/04/28 06:01:46;;;;;;;7.80;5.87;;;9.30;99.90;;;;;;5036515;28;20183;-57
2023/04/28 06:04:11;;;;;;;11.90;7.10;;;9.30;99.90;;;;;;5040217;28;20468;-57
2023/04/28 06:06:37;;;;;;;8.90;6.73;;;9.40;99.90;;;;;;5041521;28;20270;-56
2023/04/28 06:09:03;;;;;;;7.43;6.33;;;9.40;99.90;;;;;;5040705;28;20269;-56
2023/04/28 06:11:29;;;;;;;10.60;7.17;;;9.40;99.90;;;;;;5038926;28;20183;-59
2023/04/28 06:13:54;;;;;;;10.53;7.03;;;9.50;99.90;;;;;;5034277;28;20237;-57
2023/04/28 06:16:22;;;;;;;11.97;6.60;;;9.60;99.90;;;;;;5034348;28;20186;-57
2023/04/28 06:18:48;;;;;;;9.27;6.80;;;9.50;99.90;;;;;;5023047;28;20233;-56
2023/04/28 06:21:13;;;;;;;9.47;6.27;;;9.60;99.90;;;;;;5041918;28;20437;-57
2023/04/28 06:23:41;;;;;;;7.30;6.00;;;9.60;99.90;;;;;;5032613;28;20206;-57
2023/04/28 06:26:07;;;;;;;9.67;6.80;;;9.70;99.90;;;;;;5036383;28;20200;-57
2023/04/28 06:28:32;;;;;;;7.87;6.70;;;9.70;99.90;;;;;;5043987;28;20441;-58
2023/04/28 06:30:58;;;;;;;9.60;6.17;;;9.80;99.90;;;;;;5046732;28;20441;-56
2023/04/28 06:33:24;;;;;;;8.90;6.20;;;9.80;99.90;;;;;;5037351;28;20194;-57
2023/04/28 06:35:50;;;;;;;9.27;6.07;;;9.80;99.90;;;;;;5034466;28;20186;-56
2023/04/28 06:38:16;;;;;;;8.00;6.07;;;9.90;99.90;;;;;;5039410;28;20457;-57
2023/04/28 06:40:42;;;;;;;6.73;5.60;;;9.90;99.90;;;;;;5043934;28;20996;-56
2023/04/28 06:43:07;;;;;;;7.93;6.40;;;10.00;99.90;;;;;;5037087;28;20611;-57
2023/04/28 06:45:33;;;;;;;8.67;6.10;;;10.00;99.90;;;;;;5042041;28;20187;-57
2023/04/28 06:47:59;;;;;;;8.70;5.93;;;10.00;99.90;;;;;;5039024;28;20183;-56
2023/04/28 06:50:24;;;;;;;6.90;5.67;;;10.10;99.90;;;;;;5035258;28;20178;-56
2023/04/28 06:52:50;;;;;;;6.30;5.47;;;10.10;99.90;;;;;;5035465;28;20345;-58
2023/04/28 06:55:16;;;;;;;7.60;6.33;;;10.10;99.90;;;;;;5014442;28;20171;-58
2023/04/28 06:57:42;;;;;;;6.53;5.50;;;10.20;99.90;;;;;;5032588;28;20820;-57
2023/04/28 07:00:10;;;;;;;10.20;6.70;;;10.20;99.90;;;;;;5036901;28;20456;-56
2023/04/28 07:02:35;;;;;;;6.93;5.50;;;10.20;99.90;;;;;;5018700;28;20453;-57
2023/04/28 07:05:02;;;;;;;6.70;5.63;;;10.30;99.90;;;;;;5041915;28;20429;-56
2023/04/28 07:07:28;;;;;;;7.63;5.90;;;10.30;99.90;;;;;;5039326;28;20274;-56
2023/04/28 07:09:54;;;;;;;6.63;5.30;;;10.30;99.90;;;;;;5040879;28;20430;-57
2023/04/28 07:12:21;;;;;;;5.87;4.97;;;10.30;99.90;;;;;;5038555;28;20429;-58
2023/04/28 07:14:47;;;;;;;6.90;5.60;;;10.30;99.90;;;;;;5039082;28;20938;-58
2023/04/28 07:17:13;;;;;;;6.10;4.93;;;10.30;99.90;;;;;;5041405;28;20491;-57
2023/04/28 07:19:38;;;;;;;6.87;4.80;;;10.30;99.90;;;;;;5036979;28;20461;-57
2023/04/28 07:22:04;;;;;;;6.37;5.00;;;10.30;99.90;;;;;;5018576;28;20172;-57
2023/04/28 07:24:30;;;;;;;9.57;4.67;;;10.30;99.90;;;;;;5038424;28;20194;-57
2023/04/28 07:26:56;;;;;;;4.47;4.03;;;10.40;99.90;;;;;;5044025;28;20179;-57
2023/04/28 07:29:22;;;;;;;4.47;3.77;;;10.40;99.90;;;;;;5038830;28;20171;-57
2023/04/28 07:31:48;;;;;;;5.00;3.43;;;10.40;99.90;;;;;;5042917;28;20422;-52
2023/04/28 07:34:14;;;;;;;3.90;3.50;;;10.40;99.90;;;;;;5037998;28;20456;-52
2023/04/28 07:36:40;;;;;;;5.10;4.37;;;10.40;99.90;;;;;;5042277;28;20879;-58
2023/04/28 07:39:06;;;;;;;3.90;3.47;;;10.40;99.90;;;;;;5037224;28;20195;-56
2023/04/28 07:41:38;;;;;;;4.30;3.90;;;10.50;99.90;;;;;;5043171;28;20258;-56
2023/04/28 07:44:06;;;;;;;4.17;3.77;;;10.50;99.90;;;;;;5039566;28;20449;-56
2023/04/28 07:46:32;;;;;;;4.70;4.20;;;10.50;99.90;;;;;;5046271;28;20503;-60
2023/04/28 07:48:58;;;;;;;4.80;3.60;;;10.50;99.90;;;;;;5042015;28;20437;-56
2023/04/28 07:51:23;;;;;;;5.87;3.80;;;10.50;99.90;;;;;;5039083;28;20175;-56
2023/04/28 07:53:49;;;;;;;3.93;3.30;;;10.50;99.90;;;;;;5042070;28;20476;-59
2023/04/28 07:56:15;;;;;;;4.77;3.20;;;10.50;99.90;;;;;;5034961;28;20214;-58
2023/04/28 07:58:41;;;;;;;5.87;2.87;;;10.50;99.90;;;;;;5042549;28;20658;-59
2023/04/28 08:01:06;;;;;;;4.73;2.50;;;10.50;99.90;;;;;;5044398;28;20217;-59
2023/04/28 08:03:32;;;;;;;3.27;2.97;;;10.40;99.90;;;;;;5044267;28;20840;-58
2023/04/28 08:05:58;;;;;;;4.47;3.57;;;10.50;99.90;;;;;;5039423;28;20171;-60
2023/04/28 08:08:23;;;;;;;3.20;2.87;;;10.50;99.90;;;;;;5038198;28;20226;-59
2023/04/28 08:10:49;;;;;;;3.87;2.17;;;10.50;99.90;;;;;;5042898;28;20438;-60
2023/04/28 08:13:15;;;;;;;2.40;2.20;;;10.60;99.90;;;;;;5045118;28;20191;-61
2023/04/28 08:15:41;;;;;;;3.20;2.10;;;10.60;99.90;;;;;;5038964;28;20333;-60
2023/04/28 08:18:07;;;;;;;2.27;2.03;;;10.70;99.90;;;;;;5043083;28;20233;-59
2023/04/28 08:20:32;;;;;;;1.90;1.80;;;10.70;99.90;;;;;;5041146;28;20249;-58
2023/04/28 08:22:58;;;;;;;1.80;1.70;;;10.80;99.90;;;;;;5042065;28;20459;-58
2023/04/28 08:25:24;;;;;;;1.60;1.50;;;10.80;99.90;;;;;;5037445;28;20182;-58
2023/04/28 08:27:50;;;;;;;3.57;1.60;;;10.90;99.90;;;;;;5044782;28;20198;-58
2023/04/28 08:30:15;;;;;;;1.70;1.60;;;10.90;99.90;;;;;;5035123;28;20434;-59
2023/04/28 08:32:41;;;;;;;1.60;1.50;;;10.90;99.90;;;;;;5039451;28;20199;-59
2023/04/28 08:35:07;;;;;;;1.20;1.20;;;11.00;99.90;;;;;;5044869;28;20175;-59
2023/04/28 08:37:33;;;;;;;1.57;1.37;;;11.00;99.90;;;;;;5038536;28;20186;-58
2023/04/28 08:40:01;;;;;;;2.37;1.60;;;11.10;99.90;;;;;;5037184;28;20485;-57
2023/04/28 08:42:30;;;;;;;1.90;1.80;;;11.10;99.90;;;;;;5038775;28;20179;-59
2023/04/28 08:44:58;;;;;;;1.67;1.57;;;11.20;99.90;;;;;;5039211;28;20480;-58
2023/04/28 08:47:35;;;;;;;3.77;2.90;;;11.20;99.90;;;;;;5032094;28;20833;-57
2023/04/28 08:50:05;;;;;;;1.73;1.57;;;11.30;99.90;;;;;;5032001;28;21130;-56
2023/04/28 08:52:32;;;;;;;1.63;1.40;;;11.40;99.90;;;;;;5031224;28;20475;-57
2023/04/28 08:54:59;;;;;;;3.13;2.00;;;11.40;99.90;;;;;;5041386;28;20441;-55
2023/04/28 08:57:29;;;;;;;2.00;1.50;;;11.50;99.90;;;;;;5029530;28;20422;-57
2023/04/28 08:59:55;;;;;;;2.63;1.77;;;11.70;99.90;;;;;;5038206;28;20493;-60
2023/04/28 09:02:21;;;;;;;1.60;1.50;;;11.70;99.90;;;;;;5045393;28;20519;-57
2023/04/28 09:04:47;;;;;;;5.50;2.10;;;11.80;99.90;;;;;;5036145;28;20557;-56
2023/04/28 09:07:13;;;;;;;2.10;1.63;;;11.90;99.90;;;;;;5040357;28;20256;-54
2023/04/28 09:09:39;;;;;;;2.90;1.70;;;12.00;99.90;;;;;;5033214;28;22740;-57
2023/04/28 09:12:06;;;;;;;3.93;1.70;;;12.00;99.90;;;;;;5039306;28;20830;-57
2023/04/28 09:14:33;;;;;;;1.60;1.50;;;12.00;99.90;;;;;;5040383;28;20457;-57
2023/04/28 09:17:00;;;;;;;2.80;1.10;;;12.00;99.90;;;;;;5059464;22;20418;-61
2023/04/28 09:19:35;;;;;;;1.27;1.20;;;12.00;99.90;;;;;;5059281;28;20460;-61
2023/04/28 09:22:01;;;;;;;1.70;1.27;;;12.00;99.90;;;;;;5060267;28;20532;-61
2023/04/28 09:24:45;;;;;;;2.17;1.77;;;12.00;99.90;;;;;;5060123;28;20424;-58
2023/04/28 09:27:11;;;;;;;4.53;1.37;;;12.00;99.90;;;;;;5062026;28;20452;-58
2023/04/28 09:29:38;;;;;;;1.80;1.70;;;12.00;99.90;;;;;;5058563;28;20931;-58
2023/04/28 09:32:23;;;;;;;1.50;1.40;;;12.00;99.90;;;;;;5059572;28;20711;-58
2023/04/28 09:34:51;;;;;;;1.93;1.80;;;12.00;99.90;;;;;;5059096;28;20522;-58
2023/04/28 09:37:24;;;;;;;6.07;3.70;;;12.00;99.90;;;;;;5063938;28;20449;-61
2023/04/28 09:39:51;;;;;;;1.67;1.57;;;12.00;99.90;;;;;;5033913;28;20457;-61
2023/04/28 09:42:42;;;;;;;2.50;1.63;;;12.00;99.90;;;;;;5041831;28;20496;-61
2023/04/28 09:45:10;;;;;;;2.17;1.60;;;12.00;99.90;;;;;;5055713;28;20980;-61
2023/04/28 09:47:40;;;;;;;1.70;1.60;;;12.10;99.90;;;;;;5062047;28;20502;-62
2023/04/28 09:50:10;;;;;;;3.07;1.53;;;12.10;99.90;;;;;;5061781;28;20446;-61
2023/04/28 09:52:36;;;;;;;2.03;1.93;;;12.10;99.90;;;;;;5057804;28;20534;-61
2023/04/28 09:55:04;;;;;;;1.60;1.50;;;12.10;99.90;;;;;;5056149;28;20438;-60
2023/04/28 09:57:32;;;;;;;1.40;1.30;;;12.00;99.90;;;;;;5059298;28;20232;-60
2023/04/28 09:59:58;;;;;;;2.03;1.60;;;12.10;99.90;;;;;;5050628;28;20590;-60
2023/04/28 10:02:25;;;;;;;1.37;1.23;;;12.10;99.90;;;;;;5055145;28;20445;-59
2023/04/28 10:04:51;;;;;;;1.27;1.17;;;12.20;99.90;;;;;;5055948;28;20997;-60
2023/04/28 10:07:19;;;;;;;1.50;1.40;;;12.30;99.90;;;;;;5055318;28;20453;-61
2023/04/28 10:09:49;;;;;;;1.50;1.40;;;12.30;99.90;;;;;;5060783;28;20444;-60
2023/04/28 10:12:19;;;;;;;1.73;1.33;;;12.40;99.90;;;;;;5064077;28;20444;-60
2023/04/28 10:14:49;;;;;;;1.80;1.70;;;12.50;99.90;;;;;;5055212;28;20424;-60
2023/04/28 10:17:18;;;;;;;2.00;1.80;;;12.60;99.90;;;;;;5060747;28;20859;-60
2023/04/28 10:19:46;;;;;;;2.93;1.60;;;12.70;99.90;;;;;;5038910;28;20453;-60
2023/04/28 10:22:32;;;;;;;1.50;1.40;;;12.80;99.90;;;;;;5043441;28;20953;-60
2023/04/28 10:25:13;;;;;;;2.27;2.07;;;12.90;99.90;;;;;;5041088;28;20425;-57
2023/04/28 10:27:45;;;;;;;1.67;1.43;;;12.90;99.90;;;;;;5059484;28;20444;-61
2023/04/28 10:30:10;;;;;;;1.60;1.50;;;12.90;99.90;;;;;;5058929;28;20432;-60
2023/04/28 10:32:36;;;;;;;1.90;1.80;;;12.80;99.90;;;;;;5046742;28;21345;-60
2023/04/28 10:35:21;;;;;;;2.43;1.70;;;12.80;99.90;;;;;;5049127;28;20186;-61
2023/04/28 10:38:09;;;;;;;1.70;1.60;;;12.80;99.90;;;;;;5058315;28;20287;-60
2023/04/28 10:40:51;;;;;;;2.40;2.20;;;12.80;99.90;;;;;;5055952;28;20437;-60
2023/04/28 10:43:31;;;;;;;2.10;1.90;;;12.80;99.90;;;;;;5053104;28;20518;-60
2023/04/28 10:46:00;;;;;;;2.83;2.27;;;12.80;99.90;;;;;;5053935;28;20426;-60
2023/04/28 10:48:29;;;;;;;1.70;1.60;;;12.70;99.90;;;;;;5036811;28;20444;-60
2023/04/28 10:51:08;;;;;;;2.20;2.00;;;12.80;99.90;;;;;;5056043;28;20430;-60
2023/04/28 10:56:24;;;;;;;1.80;1.60;;;13.10;99.90;;;;;;5052762;28;20417;-60
2023/04/28 10:58:51;;;;;;;2.20;2.10;;;13.20;99.90;;;;;;5042394;28;20475;-61
2023/04/28 11:01:19;;;;;;;2.20;2.03;;;13.30;99.90;;;;;;5062801;28;20529;-60
2023/04/28 11:03:45;;;;;;;2.00;1.90;;;13.40;99.90;;;;;;5064230;28;20456;-60
2023/04/28 11:06:30;;;;;;;3.47;1.87;;;13.40;99.90;;;;;;5066325;28;20475;-60
2023/04/28 11:09:01;;;;;;;2.20;1.90;;;13.50;99.90;;;;;;5061328;28;20205;-60
2023/04/28 11:11:37;;;;;;;1.80;1.70;;;13.40;99.90;;;;;;5064937;28;20440;-60
2023/04/28 11:14:18;;;;;;;1.83;1.73;;;13.40;99.90;;;;;;5055876;28;20416;-61
2023/04/28 11:17:01;;;;;;;2.30;2.10;;;13.50;99.90;;;;;;5065782;28;20792;-60
2023/04/28 11:19:32;;;;;;;1.90;1.80;;;13.50;99.90;;;;;;5066781;28;20522;-60
2023/04/28 11:22:02;;;;;;;3.33;2.10;;;13.50;99.90;;;;;;5061949;28;20432;-60
2023/04/28 11:24:29;;;;;;;1.90;1.80;;;13.50;99.90;;;;;;5061883;28;20933;-61
2023/04/28 11:26:58;;;;;;;2.10;1.97;;;13.60;99.90;;;;;;5063740;28;20421;-60
2023/04/28 11:29:30;;;;;;;1.67;1.57;;;13.60;99.90;;;;;;5065855;28;20429;-60
2023/04/28 11:31:56;;;;;;;2.00;1.40;;;13.60;99.90;;;;;;5050037;28;20535;-60
2023/04/28 11:34:23;;;;;;;2.80;1.70;;;13.70;99.90;;;;;;5065450;28;20546;-60
2023/04/28 11:36:48;;;;;;;1.83;1.70;;;13.60;99.90;;;;;;5049886;28;20316;-60
2023/04/28 11:39:14;;;;;;;1.50;1.40;;;13.60;99.90;;;;;;5043735;28;20925;-60
2023/04/28 11:41:41;;;;;;;1.77;1.67;;;13.60;99.90;;;;;;5060134;28;20254;-60
2023/04/28 11:44:10;;;;;;;3.03;1.87;;;13.50;99.90;;;;;;5066832;28;20228;-60
2023/04/28 11:46:44;;;;;;;2.13;1.70;;;13.50;99.90;;;;;;5063853;28;20949;-60
2023/04/28 11:49:10;;;;;;;2.03;1.87;;;13.40;99.90;;;;;;5048717;28;20528;-60
2023/04/28 11:51:37;;;;;;;1.73;1.63;;;13.40;99.90;;;;;;5053651;28;20594;-61
2023/04/28 11:54:10;;;;;;;2.63;1.93;;;13.40;99.90;;;;;;5041985;28;21038;-60
2023/04/28 11:56:43;;;;;;;2.90;2.60;;;13.40;99.90;;;;;;5060386;28;20432;-61
2023/04/28 11:59:12;;;;;;;11.13;3.40;;;13.40;99.90;;;;;;5059999;28;20918;-60
2023/04/28 12:01:50;;;;;;;4.07;2.90;;;13.40;99.90;;;;;;5063845;28;20436;-60
2023/04/28 12:04:36;;;;;;;4.10;3.20;;;13.60;99.90;;;;;;5061656;28;20786;-60
2023/04/28 12:07:11;;;;;;;5.23;1.87;;;13.70;99.90;;;;;;5060823;28;20430;-60
2023/04/28 12:09:39;;;;;;;1.37;1.27;;;13.90;99.90;;;;;;5064100;28;20432;-60
2023/04/28 12:12:07;;;;;;;2.03;1.70;;;14.10;99.90;;;;;;5058889;28;21071;-57
2023/04/28 12:14:56;;;;;;;1.50;1.40;;;14.20;99.90;;;;;;5039812;28;20491;-60
2023/04/28 12:17:33;;;;;;;1.27;1.20;;;14.20;99.90;;;;;;5062533;28;20605;-60
2023/04/28 12:20:01;;;;;;;1.60;1.50;;;14.20;99.90;;;;;;5062195;28;20461;-60
2023/04/28 12:22:28;;;;;;;1.50;1.40;;;14.20;99.90;;;;;;5058612;28;21009;-60
2023/04/28 12:25:08;;;;;;;1.30;1.20;;;14.20;99.90;;;;;;5063797;28;20457;-60
2023/04/28 12:27:37;;;;;;;1.63;1.27;;;14.30;99.90;;;;;;5059752;28;20527;-60
2023/04/28 12:30:23;;;;;;;1.10;1.10;;;14.30;99.90;;;;;;5044791;28;20436;-60
2023/04/28 12:32:50;;;;;;;1.50;1.33;;;14.30;99.90;;;;;;5042975;28;20428;-60
2023/04/28 12:35:16;;;;;;;2.30;1.50;;;14.30;99.90;;;;;;5057692;28;20421;-61
2023/04/28 12:37:43;;;;;;;1.27;1.10;;;14.40;99.90;;;;;;5063503;28;20471;-61
2023/04/28 12:40:09;;;;;;;2.67;2.43;;;14.60;99.90;;;;;;5063929;28;20605;-60
2023/04/28 12:42:35;;;;;;;4.27;1.80;;;14.80;99.90;;;;;;5037583;28;20436;-60
2023/04/28 12:45:01;;;;;;;2.93;2.50;;;15.00;99.90;;;;;;5056924;28;20422;-60
2023/04/28 12:47:26;;;;;;;0.87;0.87;;;15.20;99.90;;;;;;5058692;28;20193;-60
2023/04/28 12:49:52;;;;;;;0.90;0.90;;;15.40;99.90;;;;;;5060329;28;20193;-60
2023/04/28 12:52:21;;;;;;;1.20;1.00;;;15.40;99.90;;;;;;5045906;28;20265;-60
2023/04/28 12:54:47;;;;;;;1.03;0.93;;;15.50;99.90;;;;;;5061160;28;20202;-60
2023/04/28 12:57:14;;;;;;;2.17;1.23;;;15.50;99.90;;;;;;5063694;28;20456;-60